createdAt,value
2022-10-06T00:00:38.430Z,46.05
2022-10-06T00:03:05.178Z,44.28
2022-10-06T00:05:31.906Z,46.53
2022-10-06T00:07:59.570Z,46.80
2022-10-06T00:10:26.319Z,46.00
2022-10-06T00:12:53.144Z,47.63
2022-10-06T00:15:23.006Z,46.53
2022-10-06T00:17:50.732Z,44.83
2022-10-06T00:20:18.368Z,45.05
2022-10-06T00:22:47.150Z,46.25
2022-10-06T00:25:17.507Z,47.25
2022-10-06T00:27:47.488Z,44.53
2022-10-06T00:30:17.576Z,47.33
2022-10-06T00:32:52.578Z,45.83
2022-10-06T00:35:20.185Z,46.22
2022-10-06T00:37:47.328Z,45.65
2022-10-06T00:40:14.124Z,47.03
2022-10-06T00:42:55.482Z,47.58
2022-10-06T00:45:45.680Z,47.35
2022-10-06T00:48:25.810Z,44.13
2022-10-06T00:50:55.615Z,46.55
2022-10-06T00:53:24.419Z,45.75
2022-10-06T00:55:51.308Z,49.00
2022-10-06T00:58:18.321Z,44.75
2022-10-06T01:00:45.828Z,45.53
2022-10-06T01:03:21.939Z,45.53
2022-10-06T01:05:51.219Z,46.35
2022-10-06T01:08:19.002Z,46.55
2022-10-06T01:10:45.737Z,45.67
2022-10-06T01:13:13.317Z,44.42
2022-10-06T01:16:25.198Z,44.47
2022-10-06T01:18:54.820Z,44.10
2022-10-06T01:21:27.881Z,44.25
2022-10-06T01:23:57.145Z,41.92
2022-10-06T01:26:25.250Z,45.42
2022-10-06T01:28:52.598Z,44.88
2022-10-06T01:31:19.750Z,42.38
2022-10-06T01:33:51.922Z,44.08
2022-10-06T01:36:18.856Z,43.03
2022-10-06T01:38:45.678Z,43.78
2022-10-06T01:41:12.444Z,43.47
2022-10-06T01:43:39.260Z,44.25
2022-10-06T01:46:06.187Z,44.35
2022-10-06T01:48:36.171Z,44.83
2022-10-06T01:51:03.082Z,41.55
2022-10-06T01:53:29.957Z,43.92
2022-10-06T01:56:00.408Z,42.38
2022-10-06T01:58:27.719Z,41.10
2022-10-06T02:00:54.698Z,43.28
2022-10-06T02:03:21.552Z,42.00
2022-10-06T02:05:48.345Z,40.42
2022-10-06T02:08:15.205Z,41.03
2022-10-06T02:10:42.465Z,40.58
2022-10-06T02:13:09.529Z,38.17
2022-10-06T02:15:36.401Z,38.92
2022-10-06T02:18:03.194Z,38.13
2022-10-06T02:20:30.166Z,38.20
2022-10-06T02:22:56.939Z,37.42
2022-10-06T02:25:23.703Z,38.70
2022-10-06T02:27:50.447Z,36.58
2022-10-06T02:30:17.232Z,36.13
2022-10-06T02:32:44.259Z,38.75
2022-10-06T02:35:12.890Z,39.45
2022-10-06T02:37:41.546Z,35.47
2022-10-06T02:40:09.486Z,38.13
2022-10-06T02:42:39.706Z,37.63
2022-10-06T02:45:07.310Z,37.22
2022-10-06T02:47:36.462Z,37.90
2022-10-06T02:50:05.730Z,36.95
2022-10-06T02:52:37.563Z,36.22
2022-10-06T02:55:05.813Z,38.08
2022-10-06T02:57:32.742Z,38.92
2022-10-06T02:59:59.498Z,38.00
2022-10-06T03:02:26.483Z,38.58
2022-10-06T03:04:53.386Z,34.88
2022-10-06T03:07:20.108Z,35.28
2022-10-06T03:09:46.885Z,34.55
2022-10-06T03:12:13.577Z,37.08
2022-10-06T03:14:40.454Z,34.92
2022-10-06T03:17:09.912Z,33.85
2022-10-06T03:19:37.472Z,35.85
2022-10-06T03:22:05.286Z,34.75
2022-10-06T03:24:32.396Z,35.63
2022-10-06T03:26:59.271Z,32.63
2022-10-06T03:29:26.085Z,36.40
2022-10-06T03:31:52.815Z,35.38
2022-10-06T03:34:19.557Z,32.25
2022-10-06T03:36:46.304Z,33.45
2022-10-06T03:39:13.149Z,34.13
2022-10-06T03:41:39.941Z,35.25
2022-10-06T03:44:06.939Z,34.10
2022-10-06T03:46:35.985Z,35.88
2022-10-06T03:49:03.689Z,35.17
2022-10-06T03:51:37.174Z,34.22
2022-10-06T03:54:04.606Z,34.22
2022-10-06T03:56:36.900Z,33.00
2022-10-06T03:59:06.857Z,34.83
2022-10-06T04:01:45.008Z,33.22
2022-10-06T04:04:12.775Z,36.85
2022-10-06T04:06:42.471Z,34.78
2022-10-06T04:09:15.363Z,33.45
2022-10-06T04:11:44.163Z,34.53
2022-10-06T04:14:13.753Z,34.45
2022-10-06T04:16:48.474Z,33.47
2022-10-06T04:19:16.303Z,34.20
2022-10-06T04:21:44.885Z,33.25
2022-10-06T04:24:12.025Z,35.28
2022-10-06T04:26:45.003Z,31.13
2022-10-06T04:29:12.167Z,34.03
2022-10-06T04:31:40.883Z,33.78
2022-10-06T04:34:09.926Z,33.97
2022-10-06T04:36:40.990Z,32.45
2022-10-06T04:39:10.257Z,32.50
2022-10-06T04:41:39.560Z,33.55
2022-10-06T04:44:07.499Z,33.40
2022-10-06T04:46:43.622Z,33.03
2022-10-06T04:49:17.979Z,32.75
2022-10-06T04:51:47.015Z,32.20
2022-10-06T04:54:14.385Z,29.10
2022-10-06T04:56:41.389Z,30.77
2022-10-06T04:59:08.147Z,30.38
2022-10-06T05:01:36.990Z,29.48
2022-10-06T05:04:06.002Z,30.58
2022-10-06T05:06:41.221Z,29.13
2022-10-06T05:09:14.844Z,27.67
2022-10-06T05:11:41.888Z,29.60
2022-10-06T05:14:08.818Z,27.88
2022-10-06T05:16:38.031Z,28.25
2022-10-06T05:19:05.709Z,27.75
2022-10-06T05:21:33.164Z,28.40
2022-10-06T05:24:00.466Z,27.63
2022-10-06T05:26:31.090Z,26.83
2022-10-06T05:28:58.443Z,27.92
2022-10-06T05:31:31.904Z,28.17
2022-10-06T05:33:59.679Z,27.15
2022-10-06T05:36:29.783Z,26.80
2022-10-06T05:38:57.356Z,25.27
2022-10-06T05:41:26.596Z,27.73
2022-10-06T05:43:53.500Z,27.92
2022-10-06T05:46:25.197Z,27.50
2022-10-06T05:48:57.171Z,26.30
2022-10-06T05:51:30.652Z,26.10
2022-10-06T05:53:59.090Z,28.40
2022-10-06T05:56:30.801Z,27.33
2022-10-06T05:58:59.686Z,25.75
2022-10-06T06:01:28.272Z,27.63
2022-10-06T06:04:00.340Z,26.33
2022-10-06T06:08:56.863Z,26.45
2022-10-06T06:11:31.475Z,26.90
2022-10-06T06:14:09.707Z,26.48
2022-10-06T06:16:39.181Z,26.13
2022-10-06T06:19:07.775Z,28.17
2022-10-06T06:21:35.033Z,26.35
2022-10-06T06:24:02.690Z,23.50
2022-10-06T06:26:31.274Z,26.60
2022-10-06T06:29:04.090Z,25.35
2022-10-06T06:31:36.742Z,26.88
2022-10-06T06:34:06.638Z,27.73
2022-10-06T06:36:37.311Z,29.95
2022-10-06T06:39:06.934Z,30.08
2022-10-06T06:41:37.833Z,29.08
2022-10-06T06:44:08.122Z,29.03
2022-10-06T06:49:07.812Z,28.73
2022-10-06T06:51:40.568Z,29.63
2022-10-06T06:54:08.791Z,29.95
2022-10-06T06:56:36.440Z,30.30
2022-10-06T06:59:08.996Z,30.83
2022-10-06T07:01:35.989Z,30.25
2022-10-06T07:04:03.578Z,29.25
2022-10-06T07:06:31.344Z,30.13
2022-10-06T07:08:59.713Z,28.05
2022-10-06T07:11:29.973Z,30.42
2022-10-06T07:14:01.155Z,31.33
2022-10-06T07:16:48.324Z,30.20
2022-10-06T07:19:34.965Z,31.52
2022-10-06T07:22:25.982Z,32.25
2022-10-06T07:25:07.285Z,32.38
2022-10-06T07:27:53.305Z,31.25
2022-10-06T07:30:23.631Z,32.08
2022-10-06T07:32:51.851Z,32.13
2022-10-06T07:35:22.640Z,31.80
2022-10-06T07:37:50.533Z,30.63
2022-10-06T07:40:17.741Z,31.45
2022-10-06T07:42:52.457Z,31.27
2022-10-06T07:45:38.859Z,31.50
2022-10-06T07:48:07.797Z,31.25
2022-10-06T07:50:37.026Z,31.27
2022-10-06T07:53:08.677Z,34.20
2022-10-06T07:55:36.937Z,34.53
2022-10-06T07:58:03.733Z,31.38
2022-10-06T08:00:30.658Z,33.22
2022-10-06T08:02:57.588Z,32.95
2022-10-06T08:05:24.442Z,31.98
2022-10-06T08:07:53.183Z,31.50
2022-10-06T08:10:20.834Z,32.17
2022-10-06T08:17:46.171Z,31.45
2022-10-06T08:23:34.880Z,34.20
2022-10-06T08:26:01.721Z,32.35
2022-10-06T08:28:30.378Z,34.75
2022-10-06T08:30:57.733Z,48.63
2022-10-06T08:33:24.471Z,41.65
2022-10-06T08:35:51.602Z,35.22
2022-10-06T08:38:18.556Z,33.75
2022-10-06T08:40:47.071Z,33.30
2022-10-06T08:43:18.893Z,35.60
2022-10-06T08:45:47.638Z,33.90
2022-10-06T08:48:28.842Z,35.45
2022-10-06T08:51:30.065Z,36.90
2022-10-06T08:54:13.539Z,36.57
2022-10-06T08:56:54.307Z,36.15
2022-10-06T08:59:21.723Z,37.53
2022-10-06T09:01:51.355Z,35.88
2022-10-06T09:04:44.644Z,35.33
2022-10-06T09:07:23.129Z,35.28
2022-10-06T09:10:16.328Z,34.78
2022-10-06T09:13:02.690Z,36.95
2022-10-06T09:15:36.213Z,35.15
2022-10-06T09:18:09.077Z,31.73
2022-10-06T09:20:43.908Z,32.53
2022-10-06T09:23:16.432Z,32.22
2022-10-06T09:25:44.898Z,34.25
2022-10-06T09:28:15.759Z,32.53
2022-10-06T09:30:43.486Z,33.40
2022-10-06T09:33:20.950Z,32.72
2022-10-06T09:36:12.367Z,32.28
2022-10-06T09:38:59.803Z,31.67
2022-10-06T09:41:32.071Z,35.92
2022-10-06T09:44:04.767Z,34.17
2022-10-06T09:46:32.792Z,33.78
2022-10-06T09:49:27.542Z,33.10
2022-10-06T09:52:15.172Z,32.88
2022-10-06T09:54:43.456Z,34.03
2022-10-06T09:57:17.585Z,34.53
2022-10-06T09:59:46.824Z,31.33
2022-10-06T10:02:36.992Z,33.75
2022-10-06T10:05:19.943Z,34.03
2022-10-06T10:08:00.404Z,31.55
2022-10-06T10:10:27.251Z,32.40
2022-10-06T10:12:56.201Z,35.10
2022-10-06T10:15:22.980Z,36.40
2022-10-06T10:18:12.539Z,33.50
2022-10-06T10:20:52.446Z,35.28
2022-10-06T10:23:31.792Z,34.00
2022-10-06T10:25:59.007Z,35.22
2022-10-06T10:28:51.720Z,34.85
2022-10-06T10:31:41.622Z,33.05
2022-10-06T10:34:25.064Z,34.15
2022-10-06T10:36:55.516Z,35.30
2022-10-06T10:39:50.922Z,34.63
2022-10-06T10:42:40.036Z,34.80
2022-10-06T10:45:16.270Z,35.22
2022-10-06T10:47:46.273Z,35.13
2022-10-06T10:50:16.263Z,33.58
2022-10-06T10:52:46.114Z,36.80
2022-10-06T10:55:31.039Z,34.03
2022-10-06T10:58:04.308Z,33.08
2022-10-06T11:00:36.170Z,31.90
2022-10-06T11:03:03.152Z,33.40
2022-10-06T11:05:54.684Z,33.63
2022-10-06T11:08:45.780Z,34.35
2022-10-06T11:11:52.339Z,33.10
2022-10-06T11:14:40.081Z,32.70
2022-10-06T11:17:27.036Z,34.65
2022-10-06T11:19:59.785Z,33.15
2022-10-06T11:22:46.872Z,34.10
2022-10-06T11:25:26.523Z,36.58
2022-10-06T11:28:01.143Z,34.42
2022-10-06T11:30:29.772Z,33.80
2022-10-06T11:33:05.104Z,35.00
2022-10-06T11:35:38.244Z,34.45
2022-10-06T11:38:37.767Z,35.42
2022-10-06T11:41:10.462Z,36.88
2022-10-06T11:43:50.772Z,34.78
2022-10-06T11:46:31.854Z,31.80
2022-10-06T11:51:44.373Z,35.28
2022-10-06T11:54:48.401Z,36.42
2022-10-06T11:57:29.626Z,35.42
2022-10-06T12:00:17.767Z,34.42
2022-10-06T12:02:46.375Z,34.13
2022-10-06T12:05:37.659Z,33.83
2022-10-06T12:08:00.945Z,34.35
2022-10-06T12:10:27.642Z,36.53
2022-10-06T12:19:41.463Z,35.88
2022-10-06T12:22:37.452Z,39.42
2022-10-06T12:25:25.059Z,37.78
2022-10-06T12:28:13.808Z,62.40
2022-10-06T12:30:52.739Z,38.45
2022-10-06T12:33:20.605Z,38.20
2022-10-06T12:35:48.033Z,37.95
2022-10-06T12:38:41.529Z,35.53
2022-10-06T12:41:14.563Z,36.35
2022-10-06T12:43:55.276Z,35.65
2022-10-06T12:46:27.213Z,35.20
2022-10-06T12:48:54.012Z,40.17
2022-10-06T12:51:40.644Z,39.95
2022-10-06T12:54:26.118Z,40.20
2022-10-06T12:57:16.112Z,37.65
2022-10-06T12:59:43.215Z,37.78
2022-10-06T13:02:21.803Z,36.78
2022-10-06T13:04:51.824Z,35.85
2022-10-06T13:07:22.005Z,35.97
2022-10-06T13:09:54.608Z,32.92
2022-10-06T13:12:26.073Z,36.83
2022-10-06T13:17:44.751Z,40.72
2022-10-06T13:20:26.519Z,39.05
2022-10-06T13:22:58.620Z,38.97
2022-10-06T13:25:27.782Z,39.47
2022-10-06T13:27:54.828Z,38.20
2022-10-06T13:30:22.915Z,38.03
2022-10-06T13:32:54.567Z,36.30
2022-10-06T13:35:25.549Z,36.00
2022-10-06T13:37:53.859Z,37.80
2022-10-06T13:40:46.025Z,40.58
2022-10-06T13:43:18.821Z,40.25
2022-10-06T13:45:48.415Z,38.20
2022-10-06T13:48:21.145Z,35.95
2022-10-06T13:50:49.523Z,33.70
2022-10-06T13:53:29.224Z,35.25
2022-10-06T13:55:56.583Z,38.95
2022-10-06T13:58:27.706Z,36.55
2022-10-06T14:00:59.535Z,36.78
2022-10-06T14:06:19.256Z,35.03
2022-10-06T14:08:51.680Z,37.40
2022-10-06T14:11:26.536Z,37.13
2022-10-06T14:14:05.143Z,35.75
2022-10-06T14:16:32.386Z,36.00
2022-10-06T14:19:04.791Z,36.58
2022-10-06T14:21:42.101Z,33.17
2022-10-06T14:24:20.559Z,35.35
2022-10-06T14:26:52.181Z,36.00
2022-10-06T14:29:19.761Z,33.97
2022-10-06T14:31:47.152Z,37.13
2022-10-06T14:34:16.487Z,35.70
2022-10-06T14:36:55.198Z,33.58
2022-10-06T14:39:22.219Z,33.85
2022-10-06T14:41:49.023Z,32.42
2022-10-06T14:44:16.232Z,33.70
2022-10-06T14:46:48.038Z,34.38
2022-10-06T14:49:14.970Z,34.88
2022-10-06T14:51:43.100Z,32.72
2022-10-06T14:54:10.495Z,37.35
2022-10-06T14:56:39.070Z,35.42
2022-10-06T14:59:08.321Z,35.90
2022-10-06T15:01:37.658Z,35.78
2022-10-06T15:04:10.131Z,33.40
2022-10-06T15:06:55.355Z,34.65
2022-10-06T15:09:23.741Z,34.00
2022-10-06T15:11:51.773Z,33.08
2022-10-06T15:14:18.549Z,34.38
2022-10-06T15:16:45.400Z,31.52
2022-10-06T15:19:13.059Z,34.30
2022-10-06T15:21:41.497Z,30.15
2022-10-06T15:24:15.196Z,31.30
2022-10-06T15:27:01.414Z,34.47
2022-10-06T15:29:28.212Z,35.25
2022-10-06T15:31:55.689Z,36.90
2022-10-06T15:34:25.757Z,39.45
2022-10-06T15:36:53.953Z,33.83
2022-10-06T15:39:23.657Z,34.83
2022-10-06T15:41:51.276Z,33.85
2022-10-06T15:44:21.742Z,34.65
2022-10-06T15:46:51.062Z,35.45
2022-10-06T15:49:25.569Z,34.45
2022-10-06T15:51:54.713Z,33.80
2022-10-06T15:54:26.857Z,35.20
2022-10-06T15:57:01.630Z,36.65
2022-10-06T15:59:32.623Z,37.85
2022-10-06T16:02:04.956Z,35.85
2022-10-06T16:04:38.877Z,35.10
2022-10-06T16:07:11.074Z,35.22
2022-10-06T16:09:43.120Z,35.63
2022-10-06T16:12:12.677Z,35.03
2022-10-06T16:14:39.449Z,34.20
2022-10-06T16:17:06.856Z,36.22
2022-10-06T16:19:36.774Z,35.67
2022-10-06T16:22:05.417Z,36.70
2022-10-06T16:24:32.206Z,34.63
2022-10-06T16:27:01.165Z,34.33
2022-10-06T16:29:28.591Z,36.05
2022-10-06T16:31:55.684Z,38.35
2022-10-06T16:34:22.660Z,38.08
2022-10-06T16:36:49.389Z,35.83
2022-10-06T16:39:19.137Z,36.45
2022-10-06T16:41:47.548Z,36.72
2022-10-06T16:44:14.884Z,35.30
2022-10-06T16:46:41.871Z,36.42
2022-10-06T16:49:09.714Z,35.25
2022-10-06T16:51:39.129Z,37.50
2022-10-06T16:54:11.131Z,37.65
2022-10-06T16:56:46.524Z,37.95
2022-10-06T16:59:19.560Z,36.92
2022-10-06T17:01:47.531Z,38.75
2022-10-06T17:04:23.184Z,39.15
2022-10-06T17:06:52.849Z,40.92
2022-10-06T17:09:27.099Z,40.45
2022-10-06T17:11:56.096Z,37.40
2022-10-06T17:14:27.196Z,40.10
2022-10-06T17:16:56.003Z,42.75
2022-10-06T17:19:25.773Z,41.15
2022-10-06T17:21:58.322Z,41.85
2022-10-06T17:24:28.199Z,43.42
2022-10-06T17:26:56.497Z,40.88
2022-10-06T17:29:23.884Z,43.28
2022-10-06T17:31:59.254Z,43.28
2022-10-06T17:34:31.751Z,43.30
2022-10-06T17:36:59.789Z,43.30
2022-10-06T17:39:26.547Z,43.38
2022-10-06T17:41:53.948Z,43.47
2022-10-06T17:44:26.146Z,43.00
2022-10-06T17:46:56.746Z,46.03
2022-10-06T17:49:24.432Z,44.90
2022-10-06T17:51:52.807Z,51.42
2022-10-06T17:54:21.766Z,67.18
2022-10-06T17:56:51.066Z,54.47
2022-10-06T17:59:24.014Z,54.83
2022-10-06T18:01:53.940Z,46.80
2022-10-06T18:04:20.906Z,43.17
2022-10-06T18:06:48.573Z,47.05
2022-10-06T18:09:16.243Z,44.20
2022-10-06T18:11:47.816Z,42.13
2022-10-06T18:14:16.862Z,41.83
2022-10-06T18:16:52.104Z,41.50
2022-10-06T18:19:28.553Z,39.53
2022-10-06T18:22:00.547Z,42.00
2022-10-06T18:24:29.345Z,37.20
2022-10-06T18:26:57.917Z,41.83
2022-10-06T18:29:28.909Z,40.80
2022-10-06T18:32:01.358Z,40.53
2022-10-06T18:37:23.442Z,38.50
2022-10-06T18:39:50.180Z,35.17
2022-10-06T18:42:18.511Z,36.33
2022-10-06T18:45:03.629Z,37.97
2022-10-06T18:47:49.137Z,35.05
2022-10-06T18:50:16.688Z,37.78
2022-10-06T18:52:43.658Z,36.20
2022-10-06T18:55:10.534Z,33.35
2022-10-06T18:57:37.693Z,34.17
2022-10-06T19:00:05.003Z,33.58
2022-10-06T19:02:32.287Z,34.47
2022-10-06T19:04:59.086Z,33.92
2022-10-06T19:07:30.882Z,34.35
2022-10-06T19:12:25.391Z,34.75
2022-10-06T19:14:52.162Z,35.85
2022-10-06T19:17:19.118Z,35.20
2022-10-06T19:19:55.269Z,35.15
2022-10-06T19:22:24.449Z,35.55
2022-10-06T19:24:52.235Z,33.97
2022-10-06T19:27:23.991Z,34.65
2022-10-06T19:29:54.340Z,34.67
2022-10-06T19:32:32.743Z,31.67
2022-10-06T19:35:00.017Z,32.55
2022-10-06T19:37:28.936Z,32.15
2022-10-06T19:39:55.723Z,31.33
2022-10-06T19:42:40.859Z,31.98
2022-10-06T19:45:08.527Z,29.88
2022-10-06T19:47:35.539Z,29.38
2022-10-06T19:50:08.730Z,29.98
2022-10-06T19:52:37.584Z,29.58
2022-10-06T19:55:04.855Z,27.00
2022-10-06T19:57:32.501Z,25.45
2022-10-06T19:59:59.287Z,25.00
2022-10-06T20:02:26.204Z,24.55
2022-10-06T20:04:53.044Z,25.23
2022-10-06T20:07:21.804Z,22.77
2022-10-06T20:09:48.897Z,22.33
2022-10-06T20:12:19.731Z,20.98
2022-10-06T20:14:49.920Z,19.23
2022-10-06T20:17:17.563Z,19.83
2022-10-06T20:19:45.393Z,19.73
2022-10-06T20:22:12.240Z,20.50
2022-10-06T20:24:39.024Z,19.80
2022-10-06T20:27:05.728Z,17.33
2022-10-06T20:29:32.510Z,17.15
2022-10-06T20:31:59.344Z,18.90
2022-10-06T20:34:31.915Z,17.75
2022-10-06T20:37:01.838Z,17.15
2022-10-06T20:39:49.554Z,15.43
2022-10-06T20:42:16.762Z,17.05
2022-10-06T20:44:44.292Z,14.98
2022-10-06T20:47:12.800Z,16.67
2022-10-06T20:49:40.374Z,16.77
2022-10-06T20:52:07.318Z,14.45
2022-10-06T20:54:37.497Z,15.18
2022-10-06T20:57:05.815Z,15.10
2022-10-06T20:59:35.410Z,16.02
2022-10-06T21:02:03.143Z,13.90
2022-10-06T21:04:30.338Z,14.32
2022-10-06T21:06:57.733Z,14.27
2022-10-06T21:09:25.078Z,13.35
2022-10-06T21:11:52.104Z,12.95
2022-10-06T21:14:19.086Z,12.82
2022-10-06T21:16:47.916Z,12.18
2022-10-06T21:19:17.079Z,14.15
2022-10-06T21:21:46.168Z,13.35
2022-10-06T21:24:13.227Z,13.40
2022-10-06T21:26:42.312Z,13.13
2022-10-06T21:29:12.784Z,12.00
2022-10-06T21:31:39.669Z,12.98
2022-10-06T21:34:06.523Z,12.77
2022-10-06T21:36:33.409Z,11.68
2022-10-06T21:39:01.573Z,13.07
2022-10-06T21:41:36.863Z,12.25
2022-10-06T21:44:16.480Z,12.13
2022-10-06T21:46:47.738Z,12.82
2022-10-06T21:49:19.981Z,12.50
2022-10-06T21:51:48.650Z,14.82
2022-10-06T21:54:16.291Z,12.85
2022-10-06T21:56:43.157Z,14.55
2022-10-06T21:59:10.942Z,14.05
2022-10-06T22:01:43.405Z,14.68
2022-10-06T22:04:14.511Z,13.88
2022-10-06T22:06:42.531Z,12.90
2022-10-06T22:09:13.229Z,14.85
2022-10-06T22:11:40.640Z,13.32
2022-10-06T22:14:11.483Z,15.32
2022-10-06T22:16:38.527Z,13.77
2022-10-06T22:19:07.973Z,14.35
2022-10-06T22:21:37.373Z,16.50
2022-10-06T22:24:06.922Z,14.07
2022-10-06T22:26:37.244Z,13.60
2022-10-06T22:29:09.125Z,13.52
2022-10-06T22:34:07.623Z,12.43
2022-10-06T22:36:34.771Z,12.40
2022-10-06T22:39:02.152Z,12.32
2022-10-06T22:41:29.063Z,12.23
2022-10-06T22:43:57.847Z,12.15
2022-10-06T22:46:29.862Z,12.43
2022-10-06T22:51:23.515Z,11.10
2022-10-06T22:53:58.894Z,11.13
2022-10-06T22:56:27.684Z,10.65
2022-10-06T22:58:55.236Z,10.38
2022-10-06T23:01:22.047Z,9.40
2022-10-06T23:03:49.019Z,8.90
2022-10-06T23:06:17.491Z,9.30
2022-10-06T23:08:44.668Z,8.35
2022-10-06T23:11:14.043Z,8.30
2022-10-06T23:13:43.239Z,7.18
2022-10-06T23:16:14.975Z,8.75
2022-10-06T23:18:43.233Z,8.05
2022-10-06T23:21:17.461Z,6.95
2022-10-06T23:23:44.474Z,6.38
2022-10-06T23:26:13.738Z,6.82
2022-10-06T23:28:41.086Z,6.65
2022-10-06T23:31:09.515Z,6.13
2022-10-06T23:33:36.591Z,7.00
2022-10-06T23:36:06.631Z,6.45
2022-10-06T23:38:34.776Z,6.80
2022-10-06T23:41:01.529Z,5.90
2022-10-06T23:43:28.946Z,4.93
2022-10-06T23:45:55.788Z,4.88
2022-10-06T23:48:22.971Z,4.65
2022-10-06T23:51:04.307Z,5.03
2022-10-06T23:53:32.118Z,5.28
2022-10-06T23:55:59.004Z,5.88
2022-10-06T23:58:26.577Z,5.72
